Terminal Aerodrome Forecast
Issued by NWS Spokane, WA

Home | Current Version | Previous Version | Text Only | Print | Product List | Glossary On
Versions: 1 2 3 4 5 6 7 8 9 10 11 12 13
000
FTUS46 KOTX 281739
TAFEAT
TAF
KEAT 281739Z 2818/2918 16006KT P6SM SCT050 BKN200
     FM282000 16007KT P6SM VCSH BKN060 BKN100
     FM290100 27010KT P6SM SCT060 BKN080 BKN150
     FM290600 31008KT P6SM FEW080 BKN120=

USA.gov is the U.S. government's official web portal to all federal, state and local government web resources and services.